Time;durP1;ratioP1;P1;durP2;ratioP2;P2;SDS_P1;SDS_P2;PMS_P1;PMS_P2;Temp;Humidity;BMP_temperature;BMP_pressure;BME280_temperature;BME280_humidity;BME280_pressure;Samples;Min_cycle;Max_cycle;Signal;HPM_P1;HPM_P2
2023/02/07 00:01:10;;;;;;;12.87;11.77;;;-0.50;99.90;;;;;;5072651;28;20198;-63
2023/02/07 00:03:36;;;;;;;9.13;8.70;;;-0.50;99.90;;;;;;5073222;28;20521;-63
2023/02/07 00:06:11;;;;;;;12.20;10.87;;;-0.40;99.90;;;;;;5072873;28;20206;-63
2023/02/07 00:08:38;;;;;;;10.43;9.30;;;-0.30;99.90;;;;;;5072931;28;20216;-63
2023/02/07 00:11:09;;;;;;;10.63;9.57;;;-0.20;99.90;;;;;;5070728;28;20199;-63
2023/02/07 00:13:35;;;;;;;9.47;8.80;;;-0.20;99.90;;;;;;5072848;28;20539;-63
2023/02/07 00:16:03;;;;;;;9.67;8.97;;;-0.20;99.90;;;;;;5072247;28;20178;-64
2023/02/07 00:18:29;;;;;;;10.60;9.60;;;-0.20;99.90;;;;;;5072699;28;20179;-63
2023/02/07 00:21:05;;;;;;;10.53;8.90;;;-0.20;99.90;;;;;;5072116;28;20201;-63
2023/02/07 00:23:31;;;;;;;9.63;8.90;;;-0.20;99.90;;;;;;5072732;28;20258;-64
2023/02/07 00:25:57;;;;;;;10.60;9.37;;;-0.10;99.90;;;;;;5072347;28;20264;-63
2023/02/07 00:28:23;;;;;;;9.17;8.67;;;-0.10;99.90;;;;;;5072475;28;20190;-63
2023/02/07 00:30:49;;;;;;;16.33;9.17;;;-0.20;99.90;;;;;;5071931;28;20196;-63
2023/02/07 00:33:15;;;;;;;10.67;9.87;;;-0.20;99.90;;;;;;5072254;28;20249;-63
2023/02/07 00:35:41;;;;;;;10.53;9.57;;;-0.20;99.90;;;;;;5072454;28;20601;-63
2023/02/07 00:38:06;;;;;;;11.40;9.30;;;-0.20;99.90;;;;;;5072259;28;20520;-63
2023/02/07 00:40:32;;;;;;;10.33;9.53;;;-0.20;99.90;;;;;;5071495;28;20710;-64
2023/02/07 00:42:58;;;;;;;8.57;8.10;;;-0.30;99.90;;;;;;5072147;28;20174;-64
2023/02/07 00:45:23;;;;;;;10.13;9.53;;;-0.20;99.90;;;;;;5072274;28;20198;-63
2023/02/07 00:47:49;;;;;;;10.13;9.37;;;-0.30;99.90;;;;;;5072196;28;20631;-64
2023/02/07 00:50:15;;;;;;;9.43;8.70;;;-0.30;99.90;;;;;;5071398;28;20293;-63
2023/02/07 00:52:40;;;;;;;13.57;8.80;;;-0.30;99.90;;;;;;5072152;28;20252;-63
2023/02/07 00:55:06;;;;;;;9.87;9.30;;;-0.40;99.90;;;;;;5071615;28;20186;-63
2023/02/07 00:57:32;;;;;;;10.77;9.77;;;-0.40;99.90;;;;;;5072165;28;20170;-64
2023/02/07 00:59:58;;;;;;;8.87;8.27;;;-0.50;99.90;;;;;;5071711;28;20200;-63
2023/02/07 01:02:23;;;;;;;8.90;8.40;;;-0.50;99.90;;;;;;5071226;28;20253;-63
2023/02/07 01:04:49;;;;;;;11.67;9.90;;;-0.50;99.90;;;;;;5071973;28;20602;-63
2023/02/07 01:07:14;;;;;;;9.73;9.13;;;-0.50;99.90;;;;;;5071871;28;20253;-63
2023/02/07 01:09:40;;;;;;;8.80;8.10;;;-0.50;99.90;;;;;;5071568;28;20229;-63
2023/02/07 01:12:05;;;;;;;10.37;9.37;;;-0.50;99.90;;;;;;5071818;28;20507;-64
2023/02/07 01:14:31;;;;;;;8.83;8.33;;;-0.50;99.90;;;;;;5071577;28;20186;-63
2023/02/07 01:16:57;;;;;;;10.13;9.23;;;-0.60;99.90;;;;;;5071754;28;20168;-63
2023/02/07 01:19:22;;;;;;;10.73;9.77;;;-0.60;99.90;;;;;;5071161;28;20733;-63
2023/02/07 01:21:48;;;;;;;10.23;9.30;;;-0.60;99.90;;;;;;5071788;28;20224;-64
2023/02/07 01:24:15;;;;;;;9.50;9.00;;;-0.60;99.90;;;;;;5071609;28;20235;-63
2023/02/07 01:26:40;;;;;;;11.10;9.23;;;-0.70;99.90;;;;;;5070365;28;20180;-63
2023/02/07 01:29:07;;;;;;;10.20;9.20;;;-0.70;99.90;;;;;;5071523;28;20249;-63
2023/02/07 01:31:33;;;;;;;11.23;10.03;;;-0.70;99.90;;;;;;5071658;28;20212;-63
2023/02/07 01:34:00;;;;;;;10.20;9.30;;;-0.80;99.90;;;;;;5071783;28;20206;-63
2023/02/07 01:36:27;;;;;;;10.53;9.83;;;-0.80;99.90;;;;;;5071278;28;20184;-63
2023/02/07 01:38:53;;;;;;;8.37;7.93;;;-0.80;99.90;;;;;;5071444;28;20209;-63
2023/02/07 01:41:21;;;;;;;9.20;8.60;;;-0.80;99.90;;;;;;5071261;28;20166;-63
2023/02/07 01:44:26;;;;;;;11.03;10.10;;;-0.80;99.90;;;;;;5071558;28;20174;-63
2023/02/07 01:46:54;;;;;;;9.30;8.73;;;-0.90;99.90;;;;;;5071308;28;20542;-63
2023/02/07 01:49:26;;;;;;;10.80;10.10;;;-0.90;99.90;;;;;;5071238;28;20460;-63
2023/02/07 01:52:01;;;;;;;9.10;8.60;;;-0.90;99.90;;;;;;5071115;28;20265;-63
2023/02/07 01:54:31;;;;;;;15.40;10.13;;;-1.00;99.90;;;;;;5071458;28;20594;-63
2023/02/07 01:57:00;;;;;;;9.30;8.67;;;-1.00;99.90;;;;;;5071313;28;20178;-63
2023/02/07 01:59:28;;;;;;;11.07;10.07;;;-1.10;99.90;;;;;;5070876;28;20289;-63
2023/02/07 02:01:54;;;;;;;9.77;9.27;;;-1.10;99.90;;;;;;5070942;28;20174;-63
2023/02/07 02:04:20;;;;;;;10.57;9.83;;;-1.10;99.90;;;;;;5071261;28;20561;-63
2023/02/07 02:06:46;;;;;;;10.33;9.50;;;-1.20;99.90;;;;;;5071067;28;20203;-63
2023/02/07 02:09:15;;;;;;;9.83;9.10;;;-1.20;99.90;;;;;;5070815;28;20201;-63
2023/02/07 02:12:04;;;;;;;10.67;10.03;;;-1.30;99.90;;;;;;5071052;28;20174;-63
2023/02/07 02:14:54;;;;;;;11.13;10.33;;;-1.40;99.90;;;;;;5074288;28;20473;-63
2023/02/07 02:17:34;;;;;;;10.93;10.07;;;-1.40;99.90;;;;;;5074783;28;20538;-63
2023/02/07 02:20:37;;;;;;;14.47;10.37;;;-1.60;99.90;;;;;;5075041;28;20754;-63
2023/02/07 02:23:09;;;;;;;10.37;9.73;;;-1.60;99.90;;;;;;5074615;28;20674;-63
2023/02/07 02:25:34;;;;;;;10.27;9.63;;;-1.70;99.90;;;;;;5075016;28;20240;-63
2023/02/07 02:28:19;;;;;;;11.33;10.37;;;-1.80;99.90;;;;;;5074736;28;20201;-63
2023/02/07 02:31:13;;;;;;;10.63;9.73;;;-1.80;99.90;;;;;;5074369;28;20270;-63
2023/02/07 02:34:02;;;;;;;11.37;10.13;;;-1.80;99.90;;;;;;5064884;28;20186;-63
2023/02/07 02:36:44;;;;;;;11.07;10.17;;;-1.90;99.90;;;;;;5074648;28;20175;-63
2023/02/07 02:39:42;;;;;;;10.20;9.50;;;-1.90;99.90;;;;;;5073919;28;20205;-63
2023/02/07 02:42:17;;;;;;;11.47;10.57;;;-2.00;99.90;;;;;;5065783;28;20190;-63
2023/02/07 02:44:57;;;;;;;9.50;8.77;;;-2.00;99.90;;;;;;5074029;28;20244;-63
2023/02/07 02:47:26;;;;;;;10.83;9.97;;;-2.00;99.90;;;;;;5074494;28;20264;-63
2023/02/07 02:49:51;;;;;;;9.50;8.80;;;-2.00;99.90;;;;;;5073922;28;20235;-63
2023/02/07 02:52:17;;;;;;;9.07;8.37;;;-2.10;99.90;;;;;;5074726;28;20265;-63
2023/02/07 02:54:43;;;;;;;11.93;10.97;;;-2.10;99.90;;;;;;5074207;28;20255;-63
2023/02/07 02:57:26;;;;;;;9.70;9.07;;;-2.10;99.90;;;;;;5073563;28;20173;-63
2023/02/07 03:00:21;;;;;;;9.97;9.27;;;-2.10;99.90;;;;;;5073843;28;20239;-63
2023/02/07 03:03:10;;;;;;;10.03;9.43;;;-2.10;99.90;;;;;;5074418;28;20166;-63
2023/02/07 03:06:08;;;;;;;11.13;9.57;;;-2.20;99.90;;;;;;5054264;28;20206;-63
2023/02/07 03:08:42;;;;;;;8.53;8.13;;;-2.30;99.90;;;;;;5059783;28;20174;-63
2023/02/07 03:11:14;;;;;;;10.33;9.73;;;-2.30;99.90;;;;;;5073372;28;20190;-63
2023/02/07 03:13:54;;;;;;;9.00;8.60;;;-2.30;99.90;;;;;;5073881;28;20181;-63
2023/02/07 03:16:32;;;;;;;10.43;9.77;;;-2.40;99.90;;;;;;5073988;28;20173;-63
2023/02/07 03:19:12;;;;;;;9.47;8.77;;;-2.30;99.90;;;;;;5073498;28;20228;-63
2023/02/07 03:22:00;;;;;;;9.53;8.93;;;-2.40;99.90;;;;;;5074110;28;20704;-63
2023/02/07 03:24:30;;;;;;;9.27;8.67;;;-2.40;99.90;;;;;;5072723;28;20549;-63
2023/02/07 03:27:00;;;;;;;9.17;8.50;;;-2.50;99.90;;;;;;5073691;28;20171;-63
2023/02/07 03:29:29;;;;;;;9.33;8.80;;;-2.40;99.90;;;;;;5073199;28;20276;-63
2023/02/07 03:31:57;;;;;;;9.37;8.70;;;-2.40;99.90;;;;;;5073672;28;20170;-63
2023/02/07 03:34:40;;;;;;;10.03;9.17;;;-2.50;99.90;;;;;;5073709;28;20173;-63
2023/02/07 03:37:13;;;;;;;9.90;9.20;;;-2.40;99.90;;;;;;5073473;28;20173;-63
2023/02/07 03:39:38;;;;;;;8.90;8.40;;;-2.50;99.90;;;;;;5053131;28;20619;-63
2023/02/07 03:42:10;;;;;;;8.87;8.47;;;-2.50;99.90;;;;;;5053367;28;20179;-63
2023/02/07 03:44:37;;;;;;;9.40;8.70;;;-2.40;99.90;;;;;;5073323;28;20238;-63
2023/02/07 03:47:03;;;;;;;8.70;8.30;;;-2.40;99.90;;;;;;5073237;28;20171;-63
2023/02/07 03:49:29;;;;;;;10.17;9.23;;;-2.40;99.90;;;;;;5072736;28;20702;-63
2023/02/07 03:51:54;;;;;;;10.57;9.77;;;-2.40;99.90;;;;;;5073325;28;20210;-63
2023/02/07 03:54:20;;;;;;;8.60;8.20;;;-2.40;99.90;;;;;;5072997;28;20257;-63
2023/02/07 03:56:45;;;;;;;8.70;8.10;;;-2.50;99.90;;;;;;5072977;28;20198;-63
2023/02/07 03:59:11;;;;;;;9.37;8.87;;;-2.50;99.90;;;;;;5072599;28;20244;-63
2023/02/07 04:01:41;;;;;;;9.60;9.00;;;-2.50;99.90;;;;;;5072686;28;20182;-63
2023/02/07 04:04:10;;;;;;;10.53;9.77;;;-2.50;99.90;;;;;;5072656;28;20241;-63
2023/02/07 04:06:37;;;;;;;9.03;8.53;;;-2.50;99.90;;;;;;5072687;28;20190;-63
2023/02/07 04:09:02;;;;;;;9.23;8.73;;;-2.50;99.90;;;;;;5072825;28;20174;-63
2023/02/07 04:11:28;;;;;;;10.37;9.67;;;-2.60;99.90;;;;;;5072421;28;20219;-64
2023/02/07 04:13:54;;;;;;;9.40;8.83;;;-2.50;99.90;;;;;;5072781;28;20177;-63
2023/02/07 04:16:19;;;;;;;9.23;8.73;;;-2.50;99.90;;;;;;5072546;28;20733;-64
2023/02/07 04:18:45;;;;;;;8.50;8.10;;;-2.50;99.90;;;;;;5072694;28;20177;-63
2023/02/07 04:21:11;;;;;;;9.03;8.63;;;-2.50;99.90;;;;;;5071903;28;20205;-63
2023/02/07 04:23:36;;;;;;;9.53;8.83;;;-2.50;99.90;;;;;;5072670;28;20264;-63
2023/02/07 04:26:02;;;;;;;10.10;9.00;;;-2.40;99.90;;;;;;5072270;28;20201;-63
2023/02/07 04:28:28;;;;;;;11.97;10.37;;;-2.40;99.90;;;;;;5072441;28;20711;-63
2023/02/07 04:30:55;;;;;;;10.40;9.60;;;-2.40;99.90;;;;;;5071864;28;20190;-63
2023/02/07 04:33:21;;;;;;;10.90;9.93;;;-2.40;99.90;;;;;;5072077;28;20170;-63
2023/02/07 04:36:01;;;;;;;9.73;8.87;;;-2.40;99.90;;;;;;5072020;28;20184;-63
2023/02/07 04:38:27;;;;;;;9.10;8.40;;;-2.40;99.90;;;;;;5072070;28;20170;-63
2023/02/07 04:41:03;;;;;;;9.67;9.07;;;-2.40;99.90;;;;;;5071807;28;20202;-63
2023/02/07 04:43:29;;;;;;;10.00;9.40;;;-2.40;99.90;;;;;;5071748;28;20174;-63
2023/02/07 04:45:54;;;;;;;15.87;9.20;;;-2.40;99.90;;;;;;5072069;28;20683;-63
2023/02/07 04:48:20;;;;;;;8.93;8.30;;;-2.40;99.90;;;;;;5072086;28;20177;-63
2023/02/07 04:50:46;;;;;;;9.60;8.97;;;-2.40;99.90;;;;;;5071658;28;20190;-63
2023/02/07 04:53:12;;;;;;;8.97;8.50;;;-2.40;99.90;;;;;;5071620;28;20174;-63
2023/02/07 04:55:37;;;;;;;9.17;8.60;;;-2.30;99.90;;;;;;5071901;28;20178;-63
2023/02/07 04:58:04;;;;;;;9.07;8.53;;;-2.30;99.90;;;;;;5071686;28;20178;-63
2023/02/07 05:00:30;;;;;;;10.13;9.27;;;-2.30;99.90;;;;;;5071666;28;20194;-63
2023/02/07 05:02:55;;;;;;;9.73;9.23;;;-2.30;99.90;;;;;;5071533;28;20655;-63
2023/02/07 05:05:21;;;;;;;9.93;9.10;;;-2.30;99.90;;;;;;5071456;28;20206;-63
2023/02/07 05:07:46;;;;;;;8.20;7.70;;;-2.30;99.90;;;;;;5071561;28;20166;-63
2023/02/07 05:10:12;;;;;;;9.87;9.10;;;-2.30;99.90;;;;;;5071270;28;20197;-63
2023/02/07 05:12:38;;;;;;;8.73;8.33;;;-2.30;99.90;;;;;;5071716;28;20185;-63
2023/02/07 05:15:04;;;;;;;9.93;9.17;;;-2.30;99.90;;;;;;5071404;28;20182;-63
2023/02/07 05:17:33;;;;;;;9.30;8.80;;;-2.40;99.90;;;;;;5071378;28;20221;-63
2023/02/07 05:19:59;;;;;;;10.13;9.37;;;-2.40;99.90;;;;;;5070938;28;20202;-63
2023/02/07 05:22:25;;;;;;;9.53;9.03;;;-2.40;99.90;;;;;;5071553;28;20518;-63
2023/02/07 05:24:50;;;;;;;9.47;8.77;;;-2.40;99.90;;;;;;5070987;28;20280;-63
2023/02/07 05:27:16;;;;;;;9.90;9.30;;;-2.40;99.90;;;;;;5071238;28;20249;-63
2023/02/07 05:29:41;;;;;;;9.90;9.20;;;-2.40;99.90;;;;;;5070813;28;20197;-63
2023/02/07 05:34:58;;;;;;;9.83;9.13;;;-2.30;99.90;;;;;;5071437;28;20185;-63
2023/02/07 05:37:24;;;;;;;10.03;9.33;;;-2.40;99.90;;;;;;5071219;28;20174;-63
2023/02/07 05:39:50;;;;;;;9.73;9.03;;;-2.40;99.90;;;;;;5070405;28;20214;-63
2023/02/07 05:42:16;;;;;;;10.50;9.70;;;-2.40;99.90;;;;;;5070926;28;20643;-63
2023/02/07 05:44:41;;;;;;;9.20;8.80;;;-2.50;99.90;;;;;;5071122;28;20194;-63
2023/02/07 05:47:07;;;;;;;9.27;8.77;;;-2.50;99.90;;;;;;5070923;28;20186;-63
2023/02/07 05:49:32;;;;;;;10.00;9.40;;;-2.60;99.90;;;;;;5070316;28;20265;-63
2023/02/07 05:51:58;;;;;;;10.13;9.33;;;-2.60;99.90;;;;;;5071031;28;20603;-63
2023/02/07 05:54:24;;;;;;;9.23;8.70;;;-2.70;99.90;;;;;;5071081;28;20174;-63
2023/02/07 05:56:50;;;;;;;10.80;10.03;;;-2.80;99.90;;;;;;5071136;28;20196;-63
2023/02/07 05:59:16;;;;;;;9.97;9.07;;;-2.80;99.90;;;;;;5071142;28;20220;-63
2023/02/07 06:01:41;;;;;;;8.83;8.43;;;-2.80;99.90;;;;;;5071087;28;21529;-63
2023/02/07 06:04:07;;;;;;;9.83;9.07;;;-2.80;99.90;;;;;;5071338;28;20170;-63
2023/02/07 06:06:32;;;;;;;9.03;8.53;;;-2.70;99.90;;;;;;5070805;28;20198;-63
2023/02/07 06:08:58;;;;;;;9.47;8.97;;;-2.80;99.90;;;;;;5070917;28;20219;-63
2023/02/07 06:11:23;;;;;;;9.07;8.57;;;-2.70;99.90;;;;;;5070658;28;20257;-63
2023/02/07 06:13:49;;;;;;;11.13;10.07;;;-2.70;99.90;;;;;;5070902;28;20529;-63
2023/02/07 06:16:15;;;;;;;9.77;9.17;;;-2.70;99.90;;;;;;5070875;28;20236;-63
2023/02/07 06:18:40;;;;;;;10.50;9.90;;;-2.80;99.90;;;;;;5070761;28;20185;-63
2023/02/07 06:21:06;;;;;;;10.13;9.33;;;-2.80;99.90;;;;;;5070997;28;20216;-63
2023/02/07 06:23:31;;;;;;;10.50;9.90;;;-2.80;99.90;;;;;;5069482;28;20183;-63
2023/02/07 06:25:57;;;;;;;9.60;9.10;;;-2.80;99.90;;;;;;5070776;28;20270;-63
2023/02/07 06:28:22;;;;;;;10.10;9.40;;;-2.80;99.90;;;;;;5069536;28;20179;-63
2023/02/07 06:30:50;;;;;;;9.43;8.80;;;-2.80;99.90;;;;;;5070461;28;20269;-63
2023/02/07 06:33:16;;;;;;;9.73;9.03;;;-2.80;99.90;;;;;;5070707;28;20536;-63
2023/02/07 06:35:46;;;;;;;10.60;9.87;;;-2.80;99.90;;;;;;5070929;28;20310;-63
2023/02/07 06:38:15;;;;;;;14.83;9.37;;;-2.80;99.90;;;;;;5071240;28;20186;-63
2023/02/07 06:40:41;;;;;;;11.47;10.57;;;-2.80;99.90;;;;;;5070034;28;20213;-63
2023/02/07 06:43:08;;;;;;;9.20;8.80;;;-2.70;99.90;;;;;;5070388;28;20602;-63
2023/02/07 06:45:33;;;;;;;8.70;8.27;;;-2.70;99.90;;;;;;5070759;28;20202;-63
2023/02/07 06:47:59;;;;;;;8.90;8.40;;;-2.70;99.90;;;;;;5070422;28;20180;-63
2023/02/07 06:50:25;;;;;;;8.90;8.40;;;-2.60;99.90;;;;;;5070269;28;20186;-63
2023/02/07 06:52:50;;;;;;;10.47;9.40;;;-2.60;99.90;;;;;;5071460;28;20174;-63
2023/02/07 06:55:16;;;;;;;13.57;9.00;;;-2.60;99.90;;;;;;5070727;28;20201;-63
2023/02/07 06:57:42;;;;;;;9.73;9.23;;;-2.60;99.90;;;;;;5070589;28;20651;-63
2023/02/07 07:00:08;;;;;;;9.57;8.97;;;-2.60;99.90;;;;;;5069270;28;20198;-63
2023/02/07 07:02:34;;;;;;;10.13;9.33;;;-2.50;99.90;;;;;;5067047;28;20224;-63
2023/02/07 07:04:59;;;;;;;9.40;8.70;;;-2.50;99.90;;;;;;5053044;28;20440;-63
2023/02/07 07:07:25;;;;;;;9.93;8.57;;;-2.50;99.90;;;;;;5066879;28;20186;-63
2023/02/07 07:09:51;;;;;;;10.67;9.80;;;-2.40;99.90;;;;;;5073375;28;20194;-63
2023/02/07 07:12:16;;;;;;;10.50;9.70;;;-2.40;99.90;;;;;;5073462;28;20174;-63
2023/02/07 07:14:42;;;;;;;9.47;8.90;;;-2.40;99.90;;;;;;5073822;28;20178;-63
2023/02/07 07:17:08;;;;;;;9.13;8.50;;;-2.50;99.90;;;;;;5073456;28;20182;-64
2023/02/07 07:19:33;;;;;;;9.57;8.73;;;-2.50;99.90;;;;;;5073367;28;20891;-63
2023/02/07 07:21:59;;;;;;;8.53;7.93;;;-2.40;99.90;;;;;;5073454;28;20647;-63
2023/02/07 07:24:26;;;;;;;9.17;8.63;;;-2.40;99.90;;;;;;5073095;28;20178;-63
2023/02/07 07:26:51;;;;;;;8.57;8.03;;;-2.40;99.90;;;;;;5073314;28;20540;-63
2023/02/07 07:29:18;;;;;;;10.23;9.50;;;-2.40;99.90;;;;;;5073243;28;20194;-63
2023/02/07 07:31:44;;;;;;;8.93;8.33;;;-2.40;99.90;;;;;;5073323;28;20171;-63
2023/02/07 07:34:09;;;;;;;19.23;8.63;;;-2.40;99.90;;;;;;5072961;28;20639;-63
2023/02/07 07:36:35;;;;;;;9.03;8.60;;;-2.40;99.90;;;;;;5073438;28;20219;-63
2023/02/07 07:39:01;;;;;;;13.80;10.60;;;-2.40;99.90;;;;;;5073509;28;20182;-64
2023/02/07 07:41:26;;;;;;;8.90;8.43;;;-2.40;99.90;;;;;;5077957;22;20234;-65
2023/02/07 07:43:52;;;;;;;9.53;8.77;;;-2.30;99.90;;;;;;5033308;28;20179;-66
2023/02/07 07:46:18;;;;;;;8.60;8.00;;;-2.20;99.90;;;;;;5049976;28;20203;-66
2023/02/07 07:48:43;;;;;;;11.03;9.90;;;-2.20;99.90;;;;;;5053283;28;20174;-65
2023/02/07 07:51:09;;;;;;;9.77;8.90;;;-2.10;99.90;;;;;;5037202;28;20195;-65
2023/02/07 07:53:34;;;;;;;9.10;8.47;;;-2.10;99.90;;;;;;5033172;28;20175;-65
2023/02/07 07:56:00;;;;;;;9.67;9.17;;;-2.00;99.90;;;;;;5032634;28;20671;-65
2023/02/07 07:58:26;;;;;;;9.87;9.17;;;-1.90;99.90;;;;;;5032925;28;20314;-65
2023/02/07 08:00:52;;;;;;;10.13;9.43;;;-1.90;99.90;;;;;;5032512;28;20665;-65
2023/02/07 08:03:18;;;;;;;12.03;9.53;;;-1.80;99.90;;;;;;5032762;28;20180;-66
2023/02/07 08:05:44;;;;;;;9.60;9.00;;;-1.70;99.90;;;;;;5032534;28;20202;-66
2023/02/07 08:08:10;;;;;;;9.60;9.03;;;-1.60;99.90;;;;;;5032768;28;20506;-65
2023/02/07 08:10:36;;;;;;;9.17;8.67;;;-1.40;99.90;;;;;;5032034;28;20274;-65
2023/02/07 08:13:02;;;;;;;9.47;8.87;;;-1.00;99.90;;;;;;5032696;28;20179;-66
2023/02/07 08:15:28;;;;;;;9.33;8.67;;;-0.30;99.90;;;;;;5031473;28;20175;-65
2023/02/07 08:17:53;;;;;;;10.50;9.60;;;0.50;99.90;;;;;;5032494;28;20180;-65
2023/02/07 08:20:19;;;;;;;14.57;9.70;;;1.30;99.90;;;;;;5032157;28;20286;-66
2023/02/07 08:22:45;;;;;;;10.53;8.97;;;2.00;99.90;;;;;;5031507;28;20171;-66
2023/02/07 08:25:10;;;;;;;10.93;10.03;;;2.60;99.90;;;;;;5030905;28;20191;-66
2023/02/07 08:27:36;;;;;;;11.80;10.60;;;3.00;99.90;;;;;;5031351;28;20664;-66
2023/02/07 08:30:04;;;;;;;9.17;8.37;;;3.50;99.90;;;;;;5031043;28;20203;-66
2023/02/07 08:32:29;;;;;;;9.50;8.63;;;4.00;99.90;;;;;;5032502;28;20175;-66
2023/02/07 08:34:55;;;;;;;9.03;8.33;;;4.50;99.90;;;;;;5032322;28;20171;-66
2023/02/07 08:37:21;;;;;;;16.63;14.83;;;4.90;99.90;;;;;;5032108;28;20182;-66
2023/02/07 08:39:51;;;;;;;11.60;10.40;;;5.40;99.90;;;;;;5031354;28;20294;-66
2023/02/07 08:42:19;;;;;;;9.63;8.83;;;5.90;99.90;;;;;;5031761;28;20194;-65
2023/02/07 08:44:46;;;;;;;9.70;8.90;;;6.20;99.90;;;;;;5028048;28;20206;-64
2023/02/07 08:47:12;;;;;;;9.77;9.00;;;6.40;99.90;;;;;;5031759;28;20222;-65
2023/02/07 08:49:37;;;;;;;7.80;7.30;;;6.50;99.90;;;;;;5031330;28;20199;-66
2023/02/07 08:52:03;;;;;;;8.30;7.77;;;6.60;99.90;;;;;;5031758;28;20179;-64
2023/02/07 08:54:29;;;;;;;8.50;8.00;;;6.60;99.90;;;;;;5031993;28;20297;-64
2023/02/07 08:56:54;;;;;;;8.43;7.73;;;6.60;99.90;;;;;;5031691;28;20262;-65
2023/02/07 08:59:20;;;;;;;8.93;8.33;;;6.70;99.90;;;;;;5031039;28;20187;-64
2023/02/07 09:01:45;;;;;;;8.20;7.50;;;6.80;99.90;;;;;;5031426;28;20167;-64
2023/02/07 09:04:11;;;;;;;9.47;8.57;;;6.80;99.90;;;;;;5031193;28;20175;-64
2023/02/07 09:06:37;;;;;;;9.20;8.33;;;7.00;99.90;;;;;;5012228;28;20250;-65
2023/02/07 09:09:03;;;;;;;55.47;33.93;;;7.40;99.90;;;;;;5026968;28;20175;-65
2023/02/07 09:11:29;;;;;;;10.60;9.57;;;7.60;99.90;;;;;;5031906;28;20199;-65
2023/02/07 09:13:55;;;;;;;8.07;6.83;;;7.70;99.90;;;;;;5031515;28;20560;-65
2023/02/07 09:16:22;;;;;;;7.20;6.63;;;8.00;99.90;;;;;;5031624;28;20207;-65
2023/02/07 09:18:47;;;;;;;6.13;5.80;;;8.30;99.90;;;;;;5030808;28;20167;-65
2023/02/07 09:21:13;;;;;;;6.77;6.37;;;8.40;96.00;;;;;;5030915;28;20270;-65
2023/02/07 09:23:39;;;;;;;6.03;5.63;;;8.60;94.50;;;;;;5027018;28;20179;-65
2023/02/07 09:26:07;;;;;;;6.80;6.37;;;8.70;47.30;;;;;;5030997;28;20250;-65
2023/02/07 09:28:32;;;;;;;6.80;6.30;;;9.00;75.70;;;;;;5031478;28;20164;-65
2023/02/07 09:30:58;;;;;;;8.17;7.57;;;9.30;45.50;;;;;;5030590;28;20540;-66
2023/02/07 09:33:24;;;;;;;6.47;5.97;;;9.40;1.00;;;;;;5031036;28;20174;-65
2023/02/07 09:35:50;;;;;;;6.43;6.03;;;9.40;1.00;;;;;;5030608;28;20582;-65
2023/02/07 09:38:19;;;;;;;6.17;5.77;;;9.60;99.90;;;;;;5030570;28;20257;-65
2023/02/07 09:40:49;;;;;;;6.60;5.93;;;9.90;1.00;;;;;;5029692;28;20233;-65
2023/02/07 09:43:31;;;;;;;6.27;5.87;;;9.90;1.00;;;;;;5031023;28;20210;-65
2023/02/07 09:46:01;;;;;;;6.73;6.23;;;9.50;1.00;;;;;;5030665;28;20199;-65
2023/02/07 09:48:54;;;;;;;6.10;5.70;;;9.00;1.00;;;;;;5030898;28;20172;-65
2023/02/07 09:51:22;;;;;;;7.10;6.60;;;8.50;1.00;;;;;;5030315;28;20286;-65
2023/02/07 09:54:10;;;;;;;7.20;6.63;;;8.50;1.00;;;;;;5030996;28;20206;-65
2023/02/07 09:56:37;;;;;;;6.97;6.57;;;7.90;1.00;;;;;;5028624;28;20270;-64
2023/02/07 09:59:32;;;;;;;9.23;8.53;;;7.80;1.00;;;;;;5031006;28;20205;-65
2023/02/07 10:02:02;;;;;;;7.77;7.17;;;7.70;1.00;;;;;;5030722;28;20180;-64
2023/02/07 10:04:35;;;;;;;7.57;6.87;;;7.50;1.00;;;;;;5030734;28;20634;-64
2023/02/07 10:07:06;;;;;;;7.20;6.57;;;7.60;1.00;;;;;;5031028;28;20250;-64
2023/02/07 10:09:40;;;;;;;6.77;6.17;;;7.50;1.00;;;;;;5030441;28;20218;-64
2023/02/07 10:12:27;;;;;;;7.23;6.73;;;7.30;1.00;;;;;;5030984;28;20589;-65
2023/02/07 10:15:09;;;;;;;6.73;6.23;;;7.20;1.00;;;;;;5011317;28;20176;-65
2023/02/07 10:17:52;;;;;;;7.20;6.70;;;7.50;1.00;;;;;;5012925;28;20415;-65
2023/02/07 10:20:38;;;;;;;6.77;6.17;;;8.00;1.00;;;;;;5030655;28;20270;-65
2023/02/07 10:23:07;;;;;;;6.27;5.87;;;8.40;1.00;;;;;;5030769;28;20172;-65
2023/02/07 10:25:54;;;;;;;5.70;5.40;;;9.00;1.00;;;;;;5029535;28;20572;-65
2023/02/07 10:28:38;;;;;;;6.10;5.70;;;9.40;1.00;;;;;;5024006;28;20180;-65
2023/02/07 10:31:14;;;;;;;6.43;5.70;;;9.60;1.00;;;;;;5010767;28;20184;-65
2023/02/07 10:33:46;;;;;;;6.00;5.60;;;9.80;1.00;;;;;;5020572;28;20572;-65
2023/02/07 10:36:14;;;;;;;6.33;5.90;;;10.00;1.00;;;;;;5034758;28;20199;-64
2023/02/07 10:38:48;;;;;;;6.33;5.83;;;9.70;1.00;;;;;;5034489;28;20266;-64
2023/02/07 10:41:20;;;;;;;6.90;6.03;;;9.40;1.00;;;;;;5034154;28;20718;-65
2023/02/07 10:43:46;;;;;;;6.60;6.03;;;9.50;1.00;;;;;;5034440;28;20202;-65
2023/02/07 10:46:15;;;;;;;6.00;5.60;;;9.60;1.00;;;;;;5034241;28;20199;-65
2023/02/07 10:48:41;;;;;;;6.00;5.60;;;9.90;1.00;;;;;;5033149;28;20253;-65
2023/02/07 10:51:33;;;;;;;6.33;5.83;;;9.70;1.00;;;;;;5033872;28;20218;-65
2023/02/07 10:54:01;;;;;;;6.00;5.60;;;9.80;1.00;;;;;;5034522;28;20167;-65
2023/02/07 10:56:29;;;;;;;6.03;5.63;;;9.80;1.00;;;;;;5034298;28;20183;-65
2023/02/07 10:58:56;;;;;;;5.73;5.33;;;10.00;1.00;;;;;;5034124;28;20175;-65
2023/02/07 11:01:25;;;;;;;6.17;5.73;;;10.00;1.00;;;;;;5030177;28;20534;-65
2023/02/07 11:03:52;;;;;;;6.00;5.60;;;10.10;1.00;;;;;;5034506;28;20645;-65
2023/02/07 11:06:32;;;;;;;7.40;6.50;;;10.00;1.00;;;;;;5034131;28;20195;-64
2023/02/07 11:09:22;;;;;;;6.23;5.83;;;9.90;1.00;;;;;;5034194;28;20183;-65
2023/02/07 11:11:52;;;;;;;5.70;5.30;;;9.90;1.00;;;;;;5033937;28;20164;-64
2023/02/07 11:14:25;;;;;;;7.77;7.13;;;9.60;1.00;;;;;;5034155;28;20490;-65
2023/02/07 11:16:53;;;;;;;10.27;8.63;;;9.40;1.00;;;;;;5034105;28;20665;-65
2023/02/07 11:19:28;;;;;;;10.90;9.80;;;9.30;1.00;;;;;;5033608;28;20175;-64
2023/02/07 11:22:18;;;;;;;7.40;6.70;;;9.20;1.00;;;;;;5033840;28;20167;-64
2023/02/07 11:24:46;;;;;;;7.37;6.60;;;9.40;1.00;;;;;;5025821;28;20233;-64
2023/02/07 11:27:14;;;;;;;7.53;6.93;;;9.60;1.00;;;;;;5033539;28;20186;-65
2023/02/07 11:29:55;;;;;;;6.63;6.03;;;9.50;1.00;;;;;;5032877;28;20206;-65
2023/02/07 11:32:24;;;;;;;6.20;5.80;;;9.60;1.00;;;;;;5032395;28;20668;-64
2023/02/07 11:34:57;;;;;;;6.03;5.63;;;9.50;1.00;;;;;;5032847;28;20171;-65
2023/02/07 11:37:34;;;;;;;6.20;5.80;;;9.00;1.00;;;;;;5032603;28;20182;-65
2023/02/07 11:40:18;;;;;;;6.07;5.70;;;8.80;1.00;;;;;;5032976;28;20683;-64
2023/02/07 11:42:48;;;;;;;7.60;7.00;;;8.80;1.00;;;;;;5033574;28;20229;-65
2023/02/07 11:45:17;;;;;;;6.60;6.00;;;8.80;1.00;;;;;;5032690;28;20202;-65
2023/02/07 11:47:47;;;;;;;6.37;5.90;;;8.90;99.90;;;;;;5032601;28;20182;-65
2023/02/07 11:50:20;;;;;;;9.10;8.40;;;8.90;99.90;;;;;;5032534;28;20184;-65
2023/02/07 11:52:52;;;;;;;6.50;6.00;;;9.00;99.90;;;;;;5031195;28;20211;-65
2023/02/07 11:55:23;;;;;;;6.57;5.97;;;9.30;99.90;;;;;;5032962;28;20200;-66
2023/02/07 11:57:49;;;;;;;6.30;5.90;;;9.40;99.90;;;;;;5032973;28;20262;-65
2023/02/07 12:00:23;;;;;;;5.60;5.30;;;9.50;99.90;;;;;;5032531;28;20635;-66
2023/02/07 12:02:58;;;;;;;6.30;5.80;;;9.80;99.90;;;;;;5032285;28;20581;-66
2023/02/07 12:05:29;;;;;;;6.07;5.67;;;10.10;99.90;;;;;;5032539;28;20217;-65
2023/02/07 12:08:18;;;;;;;6.27;5.87;;;10.20;99.90;;;;;;5032852;28;20172;-66
2023/02/07 12:10:49;;;;;;;5.87;5.57;;;10.10;99.90;;;;;;5032478;28;20237;-65
2023/02/07 12:13:24;;;;;;;6.70;6.20;;;10.00;99.90;;;;;;5032728;28;20258;-65
2023/02/07 12:16:02;;;;;;;6.37;5.90;;;9.80;99.90;;;;;;5032692;28;20167;-66
2023/02/07 12:18:33;;;;;;;9.80;5.97;;;9.70;99.90;;;;;;5032731;28;20266;-66
2023/02/07 12:21:08;;;;;;;8.67;7.23;;;9.70;99.90;;;;;;5032336;28;20199;-65
2023/02/07 12:23:56;;;;;;;6.50;6.10;;;9.80;99.90;;;;;;5032607;28;20557;-65
2023/02/07 12:26:23;;;;;;;7.70;7.10;;;9.90;99.90;;;;;;5029937;28;20210;-65
2023/02/07 12:29:00;;;;;;;7.13;6.47;;;9.90;99.90;;;;;;5032522;28;20679;-65
2023/02/07 12:31:39;;;;;;;7.33;6.67;;;9.80;99.90;;;;;;5032071;28;20274;-65
2023/02/07 12:34:17;;;;;;;7.00;6.40;;;9.60;99.90;;;;;;5032216;28;20167;-65
2023/02/07 12:36:49;;;;;;;6.43;6.00;;;9.60;99.90;;;;;;5032559;28;20179;-66
2023/02/07 12:39:49;;;;;;;6.70;6.30;;;9.60;99.90;;;;;;5030950;28;20364;-66
2023/02/07 12:42:28;;;;;;;6.73;6.23;;;9.70;99.90;;;;;;5031610;28;20274;-66
2023/02/07 12:44:58;;;;;;;6.77;6.30;;;9.90;99.90;;;;;;5032421;28;20252;-66
2023/02/07 12:47:43;;;;;;;8.20;7.40;;;10.20;99.90;;;;;;5031998;28;20179;-65
2023/02/07 12:50:25;;;;;;;6.83;6.30;;;10.40;99.90;;;;;;5031863;28;20197;-66
2023/02/07 12:53:16;;;;;;;6.97;6.30;;;10.40;99.90;;;;;;5032343;28;20159;-66
2023/02/07 12:55:42;;;;;;;8.30;7.50;;;10.40;99.90;;;;;;5032125;28;20182;-66
2023/02/07 12:58:44;;;;;;;6.23;5.83;;;10.00;99.90;;;;;;5029312;28;20175;-65
2023/02/07 13:01:28;;;;;;;6.03;5.63;;;10.00;99.90;;;;;;5031757;28;20194;-66
2023/02/07 13:04:19;;;;;;;6.93;6.47;;;9.90;99.90;;;;;;5031726;28;20327;-65
2023/02/07 13:07:10;;;;;;;5.83;5.43;;;9.80;99.90;;;;;;5031709;28;20269;-65